sensor_id;sensor_type;location;lat;lon;timestamp;temperature;humidity
36458;DHT22;22480;50.546;12.292;2022-08-19T00:00:30;17.50;99.90
36458;DHT22;22480;50.546;12.292;2022-08-19T00:02:55;17.50;99.90
36458;DHT22;22480;50.546;12.292;2022-08-19T00:05:21;17.50;99.90
36458;DHT22;22480;50.546;12.292;2022-08-19T00:07:48;17.50;99.90
36458;DHT22;22480;50.546;12.292;2022-08-19T00:10:16;17.50;99.90
36458;DHT22;22480;50.546;12.292;2022-08-19T00:12:42;17.50;99.90
36458;DHT22;22480;50.546;12.292;2022-08-19T00:15:11;17.50;99.90
36458;DHT22;22480;50.546;12.292;2022-08-19T00:17:39;17.50;99.90
36458;DHT22;22480;50.546;12.292;2022-08-19T00:20:05;17.50;99.90
36458;DHT22;22480;50.546;12.292;2022-08-19T00:22:32;17.40;99.90
36458;DHT22;22480;50.546;12.292;2022-08-19T00:24:58;17.50;99.90
36458;DHT22;22480;50.546;12.292;2022-08-19T00:27:23;17.50;99.90
36458;DHT22;22480;50.546;12.292;2022-08-19T00:29:49;17.50;99.90
36458;DHT22;22480;50.546;12.292;2022-08-19T00:32:16;17.50;99.90
36458;DHT22;22480;50.546;12.292;2022-08-19T00:34:42;17.40;99.90
36458;DHT22;22480;50.546;12.292;2022-08-19T00:37:08;17.50;99.90
36458;DHT22;22480;50.546;12.292;2022-08-19T00:39:34;17.50;99.90
36458;DHT22;22480;50.546;12.292;2022-08-19T00:42:00;17.50;99.90
36458;DHT22;22480;50.546;12.292;2022-08-19T00:44:28;17.40;99.90
36458;DHT22;22480;50.546;12.292;2022-08-19T00:46:56;17.40;99.90
36458;DHT22;22480;50.546;12.292;2022-08-19T00:49:30;17.40;99.90
36458;DHT22;22480;50.546;12.292;2022-08-19T00:52:08;17.40;99.90
36458;DHT22;22480;50.546;12.292;2022-08-19T00:54:37;17.40;99.90
36458;DHT22;22480;50.546;12.292;2022-08-19T00:57:08;17.40;99.90
36458;DHT22;22480;50.546;12.292;2022-08-19T00:59:36;17.40;99.90
36458;DHT22;22480;50.546;12.292;2022-08-19T01:02:07;17.40;99.90
36458;DHT22;22480;50.546;12.292;2022-08-19T01:04:35;17.40;99.90
36458;DHT22;22480;50.546;12.292;2022-08-19T01:07:05;17.40;99.90
36458;DHT22;22480;50.546;12.292;2022-08-19T01:09:33;17.40;99.90
36458;DHT22;22480;50.546;12.292;2022-08-19T01:12:00;17.40;99.90
36458;DHT22;22480;50.546;12.292;2022-08-19T01:14:26;17.40;99.90
36458;DHT22;22480;50.546;12.292;2022-08-19T01:16:53;17.40;99.90
36458;DHT22;22480;50.546;12.292;2022-08-19T01:19:29;17.50;99.90
36458;DHT22;22480;50.546;12.292;2022-08-19T01:22:02;17.40;99.90
36458;DHT22;22480;50.546;12.292;2022-08-19T01:24:29;17.40;99.90
36458;DHT22;22480;50.546;12.292;2022-08-19T01:26:58;17.40;99.90
36458;DHT22;22480;50.546;12.292;2022-08-19T01:29:28;17.40;99.90
36458;DHT22;22480;50.546;12.292;2022-08-19T01:31:54;17.40;99.90
36458;DHT22;22480;50.546;12.292;2022-08-19T01:34:24;17.40;99.90
36458;DHT22;22480;50.546;12.292;2022-08-19T01:36:52;17.40;99.90
36458;DHT22;22480;50.546;12.292;2022-08-19T01:39:24;17.40;99.90
36458;DHT22;22480;50.546;12.292;2022-08-19T01:41:53;17.40;99.90
36458;DHT22;22480;50.546;12.292;2022-08-19T01:44:21;17.40;99.90
36458;DHT22;22480;50.546;12.292;2022-08-19T01:46:52;17.40;99.90
36458;DHT22;22480;50.546;12.292;2022-08-19T01:49:23;17.50;99.90
36458;DHT22;22480;50.546;12.292;2022-08-19T01:51:50;17.50;99.90
36458;DHT22;22480;50.546;12.292;2022-08-19T01:54:22;17.40;99.90
36458;DHT22;22480;50.546;12.292;2022-08-19T01:56:54;17.40;99.90
36458;DHT22;22480;50.546;12.292;2022-08-19T01:59:26;17.40;99.90
36458;DHT22;22480;50.546;12.292;2022-08-19T02:01:56;17.50;99.90
36458;DHT22;22480;50.546;12.292;2022-08-19T02:04:22;17.50;99.90
36458;DHT22;22480;50.546;12.292;2022-08-19T02:06:52;17.50;99.90
36458;DHT22;22480;50.546;12.292;2022-08-19T02:09:19;17.50;99.90
36458;DHT22;22480;50.546;12.292;2022-08-19T02:11:45;17.50;99.90
36458;DHT22;22480;50.546;12.292;2022-08-19T02:14:11;17.50;99.90
36458;DHT22;22480;50.546;12.292;2022-08-19T02:16:39;17.50;99.90
36458;DHT22;22480;50.546;12.292;2022-08-19T02:19:08;17.50;99.90
36458;DHT22;22480;50.546;12.292;2022-08-19T02:21:38;17.50;99.90
36458;DHT22;22480;50.546;12.292;2022-08-19T02:24:08;17.50;99.90
36458;DHT22;22480;50.546;12.292;2022-08-19T02:26:34;17.50;99.90
36458;DHT22;22480;50.546;12.292;2022-08-19T02:29:04;17.50;99.90
36458;DHT22;22480;50.546;12.292;2022-08-19T02:31:34;17.50;99.90
36458;DHT22;22480;50.546;12.292;2022-08-19T02:34:00;17.50;99.90
36458;DHT22;22480;50.546;12.292;2022-08-19T02:36:27;17.50;99.90
36458;DHT22;22480;50.546;12.292;2022-08-19T02:38:54;17.50;99.90
36458;DHT22;22480;50.546;12.292;2022-08-19T02:41:25;17.50;99.90
36458;DHT22;22480;50.546;12.292;2022-08-19T02:43:56;17.50;99.90
36458;DHT22;22480;50.546;12.292;2022-08-19T02:46:26;17.50;99.90
36458;DHT22;22480;50.546;12.292;2022-08-19T02:48:55;17.50;99.90
36458;DHT22;22480;50.546;12.292;2022-08-19T02:51:31;17.50;99.90
36458;DHT22;22480;50.546;12.292;2022-08-19T02:54:03;17.60;99.90
36458;DHT22;22480;50.546;12.292;2022-08-19T02:56:34;17.60;99.90
36458;DHT22;22480;50.546;12.292;2022-08-19T02:59:02;17.60;99.90
36458;DHT22;22480;50.546;12.292;2022-08-19T03:01:32;17.70;99.90
36458;DHT22;22480;50.546;12.292;2022-08-19T03:04:04;17.60;99.90
36458;DHT22;22480;50.546;12.292;2022-08-19T03:06:30;17.60;99.90
36458;DHT22;22480;50.546;12.292;2022-08-19T03:09:00;17.60;99.90
36458;DHT22;22480;50.546;12.292;2022-08-19T03:11:31;17.60;99.90
36458;DHT22;22480;50.546;12.292;2022-08-19T03:13:58;17.60;99.90
36458;DHT22;22480;50.546;12.292;2022-08-19T03:16:26;17.70;99.90
36458;DHT22;22480;50.546;12.292;2022-08-19T03:18:56;17.70;99.90
36458;DHT22;22480;50.546;12.292;2022-08-19T03:21:29;17.70;99.90
36458;DHT22;22480;50.546;12.292;2022-08-19T03:23:58;17.70;99.90
36458;DHT22;22480;50.546;12.292;2022-08-19T03:26:27;17.70;99.90
36458;DHT22;22480;50.546;12.292;2022-08-19T03:28:54;17.60;99.90
36458;DHT22;22480;50.546;12.292;2022-08-19T03:31:22;17.60;99.90
36458;DHT22;22480;50.546;12.292;2022-08-19T03:33:51;17.70;99.90
36458;DHT22;22480;50.546;12.292;2022-08-19T03:36:22;17.70;99.90
36458;DHT22;22480;50.546;12.292;2022-08-19T03:38:54;17.70;99.90
36458;DHT22;22480;50.546;12.292;2022-08-19T03:41:26;17.70;99.90
36458;DHT22;22480;50.546;12.292;2022-08-19T03:43:57;17.70;99.90
36458;DHT22;22480;50.546;12.292;2022-08-19T03:46:29;17.70;99.90
36458;DHT22;22480;50.546;12.292;2022-08-19T03:48:57;17.70;99.90
36458;DHT22;22480;50.546;12.292;2022-08-19T03:51:29;17.70;99.90
36458;DHT22;22480;50.546;12.292;2022-08-19T03:54:01;17.70;99.90
36458;DHT22;22480;50.546;12.292;2022-08-19T03:56:30;17.70;99.90
36458;DHT22;22480;50.546;12.292;2022-08-19T03:58:57;17.60;99.90
36458;DHT22;22480;50.546;12.292;2022-08-19T04:01:27;17.70;99.90
36458;DHT22;22480;50.546;12.292;2022-08-19T04:03:57;17.60;99.90
36458;DHT22;22480;50.546;12.292;2022-08-19T04:06:27;17.60;99.90
36458;DHT22;22480;50.546;12.292;2022-08-19T04:08:57;17.60;99.90
36458;DHT22;22480;50.546;12.292;2022-08-19T04:11:31;17.60;99.90
36458;DHT22;22480;50.546;12.292;2022-08-19T04:14:02;17.60;99.90
36458;DHT22;22480;50.546;12.292;2022-08-19T04:16:28;17.60;99.90
36458;DHT22;22480;50.546;12.292;2022-08-19T04:18:56;17.60;99.90
36458;DHT22;22480;50.546;12.292;2022-08-19T04:21:26;17.60;99.90
36458;DHT22;22480;50.546;12.292;2022-08-19T04:23:53;17.60;99.90
36458;DHT22;22480;50.546;12.292;2022-08-19T04:26:24;17.60;99.90
36458;DHT22;22480;50.546;12.292;2022-08-19T04:28:53;17.60;99.90
36458;DHT22;22480;50.546;12.292;2022-08-19T04:31:25;17.60;99.90
36458;DHT22;22480;50.546;12.292;2022-08-19T04:33:58;17.60;99.90
36458;DHT22;22480;50.546;12.292;2022-08-19T04:36:30;17.60;99.90
36458;DHT22;22480;50.546;12.292;2022-08-19T04:39:03;17.60;99.90
36458;DHT22;22480;50.546;12.292;2022-08-19T04:41:29;17.60;99.90
36458;DHT22;22480;50.546;12.292;2022-08-19T04:44:14;17.60;99.90
36458;DHT22;22480;50.546;12.292;2022-08-19T04:46:44;17.60;99.90
36458;DHT22;22480;50.546;12.292;2022-08-19T04:49:11;17.60;99.90
36458;DHT22;22480;50.546;12.292;2022-08-19T04:51:41;17.60;99.90
36458;DHT22;22480;50.546;12.292;2022-08-19T04:54:08;17.60;99.90
36458;DHT22;22480;50.546;12.292;2022-08-19T04:56:38;17.50;99.90
36458;DHT22;22480;50.546;12.292;2022-08-19T04:59:04;17.60;99.90
36458;DHT22;22480;50.546;12.292;2022-08-19T05:01:34;17.50;99.90
36458;DHT22;22480;50.546;12.292;2022-08-19T05:04:03;17.60;99.90
36458;DHT22;22480;50.546;12.292;2022-08-19T05:06:32;17.60;99.90
36458;DHT22;22480;50.546;12.292;2022-08-19T05:09:04;17.60;99.90
36458;DHT22;22480;50.546;12.292;2022-08-19T05:11:36;17.60;99.90
36458;DHT22;22480;50.546;12.292;2022-08-19T05:14:06;17.60;99.90
36458;DHT22;22480;50.546;12.292;2022-08-19T05:16:32;17.60;99.90
36458;DHT22;22480;50.546;12.292;2022-08-19T05:18:58;17.60;99.90
36458;DHT22;22480;50.546;12.292;2022-08-19T05:21:43;17.60;99.90
36458;DHT22;22480;50.546;12.292;2022-08-19T05:24:31;17.50;99.90
36458;DHT22;22480;50.546;12.292;2022-08-19T05:27:01;17.50;99.90
36458;DHT22;22480;50.546;12.292;2022-08-19T05:29:29;17.50;99.90
36458;DHT22;22480;50.546;12.292;2022-08-19T05:31:58;17.60;99.90
36458;DHT22;22480;50.546;12.292;2022-08-19T05:34:28;17.60;99.90
36458;DHT22;22480;50.546;12.292;2022-08-19T05:36:56;17.60;99.90
36458;DHT22;22480;50.546;12.292;2022-08-19T05:39:25;17.60;99.90
36458;DHT22;22480;50.546;12.292;2022-08-19T05:41:57;17.60;99.90
36458;DHT22;22480;50.546;12.292;2022-08-19T05:44:29;17.60;99.90
36458;DHT22;22480;50.546;12.292;2022-08-19T05:47:03;17.60;99.90
36458;DHT22;22480;50.546;12.292;2022-08-19T05:49:33;17.60;99.90
36458;DHT22;22480;50.546;12.292;2022-08-19T05:52:02;17.60;99.90
36458;DHT22;22480;50.546;12.292;2022-08-19T05:54:29;17.60;99.90
36458;DHT22;22480;50.546;12.292;2022-08-19T05:57:00;17.60;99.90
36458;DHT22;22480;50.546;12.292;2022-08-19T05:59:25;17.60;99.90
36458;DHT22;22480;50.546;12.292;2022-08-19T06:01:54;17.60;99.90
36458;DHT22;22480;50.546;12.292;2022-08-19T06:04:24;17.60;99.90
36458;DHT22;22480;50.546;12.292;2022-08-19T06:06:52;17.60;99.90
36458;DHT22;22480;50.546;12.292;2022-08-19T06:09:22;17.60;99.90
36458;DHT22;22480;50.546;12.292;2022-08-19T06:11:52;17.70;99.90
36458;DHT22;22480;50.546;12.292;2022-08-19T06:14:22;17.70;99.90
36458;DHT22;22480;50.546;12.292;2022-08-19T06:16:51;17.70;99.90
36458;DHT22;22480;50.546;12.292;2022-08-19T06:19:21;17.60;99.90
36458;DHT22;22480;50.546;12.292;2022-08-19T06:21:51;17.70;99.90
36458;DHT22;22480;50.546;12.292;2022-08-19T06:24:23;17.60;99.90
36458;DHT22;22480;50.546;12.292;2022-08-19T06:26:56;17.60;99.90
36458;DHT22;22480;50.546;12.292;2022-08-19T06:29:26;17.70;99.90
36458;DHT22;22480;50.546;12.292;2022-08-19T06:31:56;17.70;99.90
36458;DHT22;22480;50.546;12.292;2022-08-19T06:34:25;17.70;99.90
36458;DHT22;22480;50.546;12.292;2022-08-19T06:36:53;17.70;99.90
36458;DHT22;22480;50.546;12.292;2022-08-19T06:39:26;17.70;99.90
36458;DHT22;22480;50.546;12.292;2022-08-19T06:41:57;17.80;99.90
36458;DHT22;22480;50.546;12.292;2022-08-19T06:44:30;17.80;99.90
36458;DHT22;22480;50.546;12.292;2022-08-19T06:47:06;17.80;99.90
36458;DHT22;22480;50.546;12.292;2022-08-19T06:49:32;17.80;99.90
36458;DHT22;22480;50.546;12.292;2022-08-19T06:52:02;17.80;99.90
36458;DHT22;22480;50.546;12.292;2022-08-19T06:54:28;17.80;99.90
36458;DHT22;22480;50.546;12.292;2022-08-19T06:57:01;17.90;99.90
36458;DHT22;22480;50.546;12.292;2022-08-19T06:59:32;17.80;99.90
36458;DHT22;22480;50.546;12.292;2022-08-19T07:02:04;17.80;99.90
36458;DHT22;22480;50.546;12.292;2022-08-19T07:04:33;17.80;99.90
36458;DHT22;22480;50.546;12.292;2022-08-19T07:07:03;17.90;99.90
36458;DHT22;22480;50.546;12.292;2022-08-19T07:09:29;17.90;99.90
36458;DHT22;22480;50.546;12.292;2022-08-19T07:11:55;17.90;99.90
36458;DHT22;22480;50.546;12.292;2022-08-19T07:14:24;17.80;99.90
36458;DHT22;22480;50.546;12.292;2022-08-19T07:16:51;17.90;99.90
36458;DHT22;22480;50.546;12.292;2022-08-19T07:19:22;17.90;99.90
36458;DHT22;22480;50.546;12.292;2022-08-19T07:21:51;17.90;99.90
36458;DHT22;22480;50.546;12.292;2022-08-19T07:24:22;17.80;99.90
36458;DHT22;22480;50.546;12.292;2022-08-19T07:26:53;17.80;99.90
36458;DHT22;22480;50.546;12.292;2022-08-19T07:29:20;17.80;99.90
36458;DHT22;22480;50.546;12.292;2022-08-19T07:31:50;17.80;99.90
36458;DHT22;22480;50.546;12.292;2022-08-19T07:34:18;17.80;99.90
36458;DHT22;22480;50.546;12.292;2022-08-19T07:36:47;17.90;99.90
36458;DHT22;22480;50.546;12.292;2022-08-19T07:39:17;18.00;99.90
36458;DHT22;22480;50.546;12.292;2022-08-19T07:41:47;17.90;99.90
36458;DHT22;22480;50.546;12.292;2022-08-19T07:44:16;18.00;99.90
36458;DHT22;22480;50.546;12.292;2022-08-19T07:46:47;18.00;99.90
36458;DHT22;22480;50.546;12.292;2022-08-19T07:49:17;18.00;99.90
36458;DHT22;22480;50.546;12.292;2022-08-19T07:52:06;18.00;99.90
36458;DHT22;22480;50.546;12.292;2022-08-19T07:54:35;18.00;99.90
36458;DHT22;22480;50.546;12.292;2022-08-19T07:57:03;18.10;99.90
36458;DHT22;22480;50.546;12.292;2022-08-19T07:59:30;18.00;99.90
36458;DHT22;22480;50.546;12.292;2022-08-19T08:01:57;18.00;99.90
36458;DHT22;22480;50.546;12.292;2022-08-19T08:04:27;18.00;99.90
36458;DHT22;22480;50.546;12.292;2022-08-19T08:07:11;18.00;99.90
36458;DHT22;22480;50.546;12.292;2022-08-19T08:09:56;18.00;99.90
36458;DHT22;22480;50.546;12.292;2022-08-19T08:12:33;18.00;99.90
36458;DHT22;22480;50.546;12.292;2022-08-19T08:15:03;18.10;99.90
36458;DHT22;22480;50.546;12.292;2022-08-19T08:17:30;18.10;99.90
36458;DHT22;22480;50.546;12.292;2022-08-19T08:19:58;18.10;99.90
36458;DHT22;22480;50.546;12.292;2022-08-19T08:22:25;18.20;99.90
36458;DHT22;22480;50.546;12.292;2022-08-19T08:25:13;18.30;99.90
36458;DHT22;22480;50.546;12.292;2022-08-19T08:27:41;18.30;99.90
36458;DHT22;22480;50.546;12.292;2022-08-19T08:30:15;18.30;99.90
36458;DHT22;22480;50.546;12.292;2022-08-19T08:32:41;18.30;99.90
36458;DHT22;22480;50.546;12.292;2022-08-19T08:35:10;18.30;99.90
36458;DHT22;22480;50.546;12.292;2022-08-19T08:37:37;18.20;99.90
36458;DHT22;22480;50.546;12.292;2022-08-19T08:40:23;18.10;99.90
36458;DHT22;22480;50.546;12.292;2022-08-19T08:43:33;18.20;99.90
36458;DHT22;22480;50.546;12.292;2022-08-19T08:46:08;18.20;99.90
36458;DHT22;22480;50.546;12.292;2022-08-19T08:48:45;18.30;99.90
36458;DHT22;22480;50.546;12.292;2022-08-19T08:51:36;18.30;99.90
36458;DHT22;22480;50.546;12.292;2022-08-19T08:54:06;18.40;99.90
36458;DHT22;22480;50.546;12.292;2022-08-19T08:56:33;18.60;99.90
36458;DHT22;22480;50.546;12.292;2022-08-19T08:59:05;18.60;99.90
36458;DHT22;22480;50.546;12.292;2022-08-19T09:01:34;18.60;99.90
36458;DHT22;22480;50.546;12.292;2022-08-19T09:04:04;18.50;99.90
36458;DHT22;22480;50.546;12.292;2022-08-19T09:09:23;18.40;99.90
36458;DHT22;22480;50.546;12.292;2022-08-19T09:11:58;18.30;99.90
36458;DHT22;22480;50.546;12.292;2022-08-19T09:14:46;18.30;99.90
36458;DHT22;22480;50.546;12.292;2022-08-19T09:17:13;18.40;99.90
36458;DHT22;22480;50.546;12.292;2022-08-19T09:19:51;18.30;99.90
36458;DHT22;22480;50.546;12.292;2022-08-19T09:22:18;18.30;99.90
36458;DHT22;22480;50.546;12.292;2022-08-19T09:24:48;18.30;99.90
36458;DHT22;22480;50.546;12.292;2022-08-19T09:27:14;18.10;99.90
36458;DHT22;22480;50.546;12.292;2022-08-19T09:29:40;18.10;99.90
36458;DHT22;22480;50.546;12.292;2022-08-19T09:32:06;18.00;99.90
36458;DHT22;22480;50.546;12.292;2022-08-19T09:34:32;18.00;99.90
36458;DHT22;22480;50.546;12.292;2022-08-19T09:36:58;18.00;99.90
36458;DHT22;22480;50.546;12.292;2022-08-19T09:39:25;17.90;99.90
36458;DHT22;22480;50.546;12.292;2022-08-19T09:41:51;17.90;99.90
36458;DHT22;22480;50.546;12.292;2022-08-19T09:44:18;17.90;99.90
36458;DHT22;22480;50.546;12.292;2022-08-19T09:46:46;18.00;99.90
36458;DHT22;22480;50.546;12.292;2022-08-19T09:49:16;18.00;99.90
36458;DHT22;22480;50.546;12.292;2022-08-19T09:51:45;18.20;99.90
36458;DHT22;22480;50.546;12.292;2022-08-19T09:54:14;18.30;99.90
36458;DHT22;22480;50.546;12.292;2022-08-19T09:56:40;18.40;99.90
36458;DHT22;22480;50.546;12.292;2022-08-19T09:59:06;18.40;99.90
36458;DHT22;22480;50.546;12.292;2022-08-19T10:01:36;18.40;99.90
36458;DHT22;22480;50.546;12.292;2022-08-19T10:04:03;18.50;99.90
36458;DHT22;22480;50.546;12.292;2022-08-19T10:06:34;18.50;99.90
36458;DHT22;22480;50.546;12.292;2022-08-19T10:09:02;18.50;99.90
36458;DHT22;22480;50.546;12.292;2022-08-19T10:11:35;18.50;99.90
36458;DHT22;22480;50.546;12.292;2022-08-19T10:14:02;18.40;99.90
36458;DHT22;22480;50.546;12.292;2022-08-19T10:16:31;18.40;99.90
36458;DHT22;22480;50.546;12.292;2022-08-19T10:18:58;18.40;99.90
36458;DHT22;22480;50.546;12.292;2022-08-19T10:21:29;18.40;99.90
36458;DHT22;22480;50.546;12.292;2022-08-19T10:23:57;18.40;99.90
36458;DHT22;22480;50.546;12.292;2022-08-19T10:26:31;18.40;99.90
36458;DHT22;22480;50.546;12.292;2022-08-19T10:28:58;18.50;99.90
36458;DHT22;22480;50.546;12.292;2022-08-19T10:31:29;18.50;99.90
36458;DHT22;22480;50.546;12.292;2022-08-19T10:33:55;18.60;99.90
36458;DHT22;22480;50.546;12.292;2022-08-19T10:36:28;18.70;99.90
36458;DHT22;22480;50.546;12.292;2022-08-19T10:38:58;18.70;99.90
36458;DHT22;22480;50.546;12.292;2022-08-19T10:41:29;18.60;99.90
36458;DHT22;22480;50.546;12.292;2022-08-19T10:43:59;18.60;99.90
36458;DHT22;22480;50.546;12.292;2022-08-19T10:46:27;18.70;99.90
36458;DHT22;22480;50.546;12.292;2022-08-19T10:48:55;18.60;99.90
36458;DHT22;22480;50.546;12.292;2022-08-19T10:51:21;18.50;99.90
36458;DHT22;22480;50.546;12.292;2022-08-19T10:54:05;18.40;99.90
36458;DHT22;22480;50.546;12.292;2022-08-19T10:56:32;18.50;99.90
36458;DHT22;22480;50.546;12.292;2022-08-19T10:59:18;18.60;99.90
36458;DHT22;22480;50.546;12.292;2022-08-19T11:01:45;18.70;99.90
36458;DHT22;22480;50.546;12.292;2022-08-19T11:04:11;18.80;99.90
36458;DHT22;22480;50.546;12.292;2022-08-19T11:06:42;18.80;99.90
36458;DHT22;22480;50.546;12.292;2022-08-19T11:09:09;18.70;99.90
36458;DHT22;22480;50.546;12.292;2022-08-19T11:11:36;18.70;99.90
36458;DHT22;22480;50.546;12.292;2022-08-19T11:14:10;18.70;99.90
36458;DHT22;22480;50.546;12.292;2022-08-19T11:16:37;18.60;99.90
36458;DHT22;22480;50.546;12.292;2022-08-19T11:19:06;18.60;99.90
36458;DHT22;22480;50.546;12.292;2022-08-19T11:21:39;18.60;99.90
36458;DHT22;22480;50.546;12.292;2022-08-19T11:24:08;18.60;99.90
36458;DHT22;22480;50.546;12.292;2022-08-19T11:26:36;18.70;99.90
36458;DHT22;22480;50.546;12.292;2022-08-19T11:29:03;18.70;99.90
36458;DHT22;22480;50.546;12.292;2022-08-19T11:31:33;18.70;99.90
36458;DHT22;22480;50.546;12.292;2022-08-19T11:34:00;18.60;99.90
36458;DHT22;22480;50.546;12.292;2022-08-19T11:36:27;18.40;99.90
36458;DHT22;22480;50.546;12.292;2022-08-19T11:38:54;18.30;99.90
36458;DHT22;22480;50.546;12.292;2022-08-19T11:41:22;18.30;99.90
36458;DHT22;22480;50.546;12.292;2022-08-19T11:43:51;18.30;99.90
36458;DHT22;22480;50.546;12.292;2022-08-19T11:46:19;18.20;99.90
36458;DHT22;22480;50.546;12.292;2022-08-19T11:48:45;18.30;99.90
36458;DHT22;22480;50.546;12.292;2022-08-19T11:51:16;18.20;99.90
36458;DHT22;22480;50.546;12.292;2022-08-19T11:53:42;18.30;99.90
36458;DHT22;22480;50.546;12.292;2022-08-19T11:56:09;18.30;99.90
36458;DHT22;22480;50.546;12.292;2022-08-19T11:58:35;18.30;99.90
36458;DHT22;22480;50.546;12.292;2022-08-19T12:01:04;18.30;99.90
36458;DHT22;22480;50.546;12.292;2022-08-19T12:03:30;18.30;99.90
36458;DHT22;22480;50.546;12.292;2022-08-19T12:05:56;18.30;99.90
36458;DHT22;22480;50.546;12.292;2022-08-19T12:08:22;18.40;99.90
36458;DHT22;22480;50.546;12.292;2022-08-19T12:10:48;18.40;99.90
36458;DHT22;22480;50.546;12.292;2022-08-19T12:13:14;18.40;99.90
36458;DHT22;22480;50.546;12.292;2022-08-19T12:15:44;18.40;99.90
36458;DHT22;22480;50.546;12.292;2022-08-19T12:18:11;18.30;99.90
36458;DHT22;22480;50.546;12.292;2022-08-19T12:20:40;18.10;99.90
36458;DHT22;22480;50.546;12.292;2022-08-19T12:23:08;18.00;99.90
36458;DHT22;22480;50.546;12.292;2022-08-19T12:25:35;18.00;99.90
36458;DHT22;22480;50.546;12.292;2022-08-19T12:28:02;17.90;99.90
36458;DHT22;22480;50.546;12.292;2022-08-19T12:30:28;17.80;99.90
36458;DHT22;22480;50.546;12.292;2022-08-19T12:32:54;17.80;99.90
36458;DHT22;22480;50.546;12.292;2022-08-19T12:35:20;17.60;99.90
36458;DHT22;22480;50.546;12.292;2022-08-19T12:37:48;17.60;99.90
36458;DHT22;22480;50.546;12.292;2022-08-19T12:40:16;17.60;99.90
36458;DHT22;22480;50.546;12.292;2022-08-19T12:42:43;17.60;99.90
36458;DHT22;22480;50.546;12.292;2022-08-19T12:45:12;17.70;99.90
36458;DHT22;22480;50.546;12.292;2022-08-19T12:47:38;17.70;99.90
36458;DHT22;22480;50.546;12.292;2022-08-19T12:50:05;17.70;99.90
36458;DHT22;22480;50.546;12.292;2022-08-19T12:52:34;17.70;99.90
36458;DHT22;22480;50.546;12.292;2022-08-19T12:55:05;17.70;99.90
36458;DHT22;22480;50.546;12.292;2022-08-19T12:57:31;17.70;99.90
36458;DHT22;22480;50.546;12.292;2022-08-19T13:00:10;17.80;99.90
36458;DHT22;22480;50.546;12.292;2022-08-19T13:02:38;17.90;99.90
36458;DHT22;22480;50.546;12.292;2022-08-19T13:05:08;18.00;99.90
36458;DHT22;22480;50.546;12.292;2022-08-19T13:07:36;18.00;99.90
36458;DHT22;22480;50.546;12.292;2022-08-19T13:10:06;18.20;99.90
36458;DHT22;22480;50.546;12.292;2022-08-19T13:12:32;18.50;99.90
36458;DHT22;22480;50.546;12.292;2022-08-19T13:14:57;18.60;99.90
36458;DHT22;22480;50.546;12.292;2022-08-19T13:17:23;18.60;99.90
36458;DHT22;22480;50.546;12.292;2022-08-19T13:19:49;18.60;99.90
36458;DHT22;22480;50.546;12.292;2022-08-19T13:22:16;18.70;99.90
36458;DHT22;22480;50.546;12.292;2022-08-19T13:24:42;18.60;99.90
36458;DHT22;22480;50.546;12.292;2022-08-19T13:27:08;18.40;99.90
36458;DHT22;22480;50.546;12.292;2022-08-19T13:29:33;18.50;99.90
36458;DHT22;22480;50.546;12.292;2022-08-19T13:32:17;18.70;99.90
36458;DHT22;22480;50.546;12.292;2022-08-19T13:35:03;18.70;99.90
36458;DHT22;22480;50.546;12.292;2022-08-19T13:37:29;18.90;99.90
36458;DHT22;22480;50.546;12.292;2022-08-19T13:40:16;19.20;99.90
36458;DHT22;22480;50.546;12.292;2022-08-19T13:42:45;19.30;99.90
36458;DHT22;22480;50.546;12.292;2022-08-19T13:45:12;19.40;99.90
36458;DHT22;22480;50.546;12.292;2022-08-19T13:47:38;19.30;99.90
36458;DHT22;22480;50.546;12.292;2022-08-19T13:50:21;19.20;99.90
36458;DHT22;22480;50.546;12.292;2022-08-19T13:52:47;19.20;99.90
36458;DHT22;22480;50.546;12.292;2022-08-19T13:55:14;19.20;99.90
36458;DHT22;22480;50.546;12.292;2022-08-19T13:57:41;19.10;99.90
36458;DHT22;22480;50.546;12.292;2022-08-19T14:00:13;19.00;99.90
36458;DHT22;22480;50.546;12.292;2022-08-19T14:02:40;19.00;99.90
36458;DHT22;22480;50.546;12.292;2022-08-19T14:05:10;18.90;99.90
36458;DHT22;22480;50.546;12.292;2022-08-19T14:07:36;18.80;99.90
36458;DHT22;22480;50.546;12.292;2022-08-19T14:10:05;18.70;99.90
36458;DHT22;22480;50.546;12.292;2022-08-19T14:12:31;18.80;99.90
36458;DHT22;22480;50.546;12.292;2022-08-19T14:14:58;18.90;99.90
36458;DHT22;22480;50.546;12.292;2022-08-19T14:17:24;18.90;99.90
36458;DHT22;22480;50.546;12.292;2022-08-19T14:19:56;18.70;99.90
36458;DHT22;22480;50.546;12.292;2022-08-19T14:22:22;18.70;99.90
36458;DHT22;22480;50.546;12.292;2022-08-19T14:24:48;18.60;99.90
36458;DHT22;22480;50.546;12.292;2022-08-19T14:27:15;18.60;99.90
36458;DHT22;22480;50.546;12.292;2022-08-19T14:29:40;18.50;99.90
36458;DHT22;22480;50.546;12.292;2022-08-19T14:32:06;18.60;99.90
36458;DHT22;22480;50.546;12.292;2022-08-19T14:34:31;18.60;99.90
36458;DHT22;22480;50.546;12.292;2022-08-19T14:36:59;18.60;99.90
36458;DHT22;22480;50.546;12.292;2022-08-19T14:39:25;18.50;99.90
36458;DHT22;22480;50.546;12.292;2022-08-19T14:41:50;18.50;99.90
36458;DHT22;22480;50.546;12.292;2022-08-19T14:44:16;18.40;99.90
36458;DHT22;22480;50.546;12.292;2022-08-19T14:46:42;18.20;99.90
36458;DHT22;22480;50.546;12.292;2022-08-19T14:49:10;18.20;99.90
36458;DHT22;22480;50.546;12.292;2022-08-19T14:51:36;18.10;99.90
36458;DHT22;22480;50.546;12.292;2022-08-19T14:54:01;18.00;99.90
36458;DHT22;22480;50.546;12.292;2022-08-19T14:56:28;17.90;99.90
36458;DHT22;22480;50.546;12.292;2022-08-19T14:58:54;17.90;99.90
36458;DHT22;22480;50.546;12.292;2022-08-19T15:01:23;17.90;99.90
36458;DHT22;22480;50.546;12.292;2022-08-19T15:03:49;17.90;99.90
36458;DHT22;22480;50.546;12.292;2022-08-19T15:06:18;17.80;99.90
36458;DHT22;22480;50.546;12.292;2022-08-19T15:08:44;17.70;99.90
36458;DHT22;22480;50.546;12.292;2022-08-19T15:11:12;17.70;99.90
36458;DHT22;22480;50.546;12.292;2022-08-19T15:13:40;17.60;99.90
36458;DHT22;22480;50.546;12.292;2022-08-19T15:16:06;17.60;99.90
36458;DHT22;22480;50.546;12.292;2022-08-19T15:18:32;17.60;99.90
36458;DHT22;22480;50.546;12.292;2022-08-19T15:20:58;17.50;99.90
36458;DHT22;22480;50.546;12.292;2022-08-19T15:23:25;17.60;99.90
36458;DHT22;22480;50.546;12.292;2022-08-19T15:25:50;17.70;99.90
36458;DHT22;22480;50.546;12.292;2022-08-19T15:28:24;17.70;99.90
36458;DHT22;22480;50.546;12.292;2022-08-19T15:30:50;17.60;99.90